sensor_id;sensor_type;location;lat;lon;timestamp;pressure;altitude;pressure_sealevel;temperature
20867;BMP280;10593;48.398;10.698;2023-05-14T00:01:26;96105.16;;;19.02
20867;BMP280;10593;48.398;10.698;2023-05-14T00:03:52;96104.31;;;19.02
20867;BMP280;10593;48.398;10.698;2023-05-14T00:06:18;96111.38;;;19.00
20867;BMP280;10593;48.398;10.698;2023-05-14T00:08:43;96106.34;;;18.97
20867;BMP280;10593;48.398;10.698;2023-05-14T00:11:09;96108.16;;;18.95
20867;BMP280;10593;48.398;10.698;2023-05-14T00:13:35;96103.97;;;18.92
20867;BMP280;10593;48.398;10.698;2023-05-14T00:16:02;96103.34;;;18.87
20867;BMP280;10593;48.398;10.698;2023-05-14T00:18:27;96096.56;;;18.85
20867;BMP280;10593;48.398;10.698;2023-05-14T00:20:53;96102.75;;;18.82
20867;BMP280;10593;48.398;10.698;2023-05-14T00:23:22;96092.50;;;18.79
20867;BMP280;10593;48.398;10.698;2023-05-14T00:25:49;96095.19;;;18.78
20867;BMP280;10593;48.398;10.698;2023-05-14T00:28:15;96089.22;;;18.76
20867;BMP280;10593;48.398;10.698;2023-05-14T00:30:40;96086.69;;;18.74
20867;BMP280;10593;48.398;10.698;2023-05-14T00:33:06;96083.25;;;18.74
20867;BMP280;10593;48.398;10.698;2023-05-14T00:35:32;96080.72;;;18.72
20867;BMP280;10593;48.398;10.698;2023-05-14T00:38:02;96081.59;;;18.73
20867;BMP280;10593;48.398;10.698;2023-05-14T00:40:28;96081.66;;;18.71
20867;BMP280;10593;48.398;10.698;2023-05-14T00:42:55;96074.75;;;18.70
20867;BMP280;10593;48.398;10.698;2023-05-14T00:45:21;96086.94;;;18.70
20867;BMP280;10593;48.398;10.698;2023-05-14T00:47:48;96082.75;;;18.67
20867;BMP280;10593;48.398;10.698;2023-05-14T00:50:15;96083.72;;;18.65
20867;BMP280;10593;48.398;10.698;2023-05-14T00:52:42;96085.56;;;18.63
20867;BMP280;10593;48.398;10.698;2023-05-14T00:55:09;96082.28;;;18.59
20867;BMP280;10593;48.398;10.698;2023-05-14T00:57:37;96079.00;;;18.56
20867;BMP280;10593;48.398;10.698;2023-05-14T01:00:04;96075.63;;;18.54
20867;BMP280;10593;48.398;10.698;2023-05-14T01:02:30;96080.00;;;18.53
20867;BMP280;10593;48.398;10.698;2023-05-14T01:04:56;96075.78;;;18.51
20867;BMP280;10593;48.398;10.698;2023-05-14T01:07:35;96080.16;;;18.50
20867;BMP280;10593;48.398;10.698;2023-05-14T01:10:23;96082.84;;;18.49
20867;BMP280;10593;48.398;10.698;2023-05-14T01:13:07;96084.53;;;18.50
20867;BMP280;10593;48.398;10.698;2023-05-14T01:15:36;96071.66;;;18.47
20867;BMP280;10593;48.398;10.698;2023-05-14T01:18:09;96079.47;;;18.47
20867;BMP280;10593;48.398;10.698;2023-05-14T01:20:35;96078.72;;;18.45
20867;BMP280;10593;48.398;10.698;2023-05-14T01:23:01;96077.78;;;18.46
20867;BMP280;10593;48.398;10.698;2023-05-14T01:25:29;96077.03;;;18.44
20867;BMP280;10593;48.398;10.698;2023-05-14T01:28:17;96081.47;;;18.42
20867;BMP280;10593;48.398;10.698;2023-05-14T01:31:06;96079.00;;;18.39
20867;BMP280;10593;48.398;10.698;2023-05-14T01:33:34;96081.63;;;18.39
20867;BMP280;10593;48.398;10.698;2023-05-14T01:36:01;96082.47;;;18.39
20867;BMP280;10593;48.398;10.698;2023-05-14T01:38:28;96079.00;;;18.39
20867;BMP280;10593;48.398;10.698;2023-05-14T01:40:56;96078.19;;;18.38
20867;BMP280;10593;48.398;10.698;2023-05-14T01:43:23;96091.03;;;18.41
20867;BMP280;10593;48.398;10.698;2023-05-14T01:45:49;96081.63;;;18.39
20867;BMP280;10593;48.398;10.698;2023-05-14T01:48:14;96079.78;;;18.41
20867;BMP280;10593;48.398;10.698;2023-05-14T01:50:40;96080.63;;;18.41
20867;BMP280;10593;48.398;10.698;2023-05-14T01:53:06;96078.94;;;18.40
20867;BMP280;10593;48.398;10.698;2023-05-14T01:55:31;96079.94;;;18.38
20867;BMP280;10593;48.398;10.698;2023-05-14T01:57:57;96080.78;;;18.38
20867;BMP280;10593;48.398;10.698;2023-05-14T02:00:23;96075.59;;;18.38
20867;BMP280;10593;48.398;10.698;2023-05-14T02:02:52;96083.28;;;18.40
20867;BMP280;10593;48.398;10.698;2023-05-14T02:05:18;96078.09;;;18.40
20867;BMP280;10593;48.398;10.698;2023-05-14T02:07:44;96083.28;;;18.40
20867;BMP280;10593;48.398;10.698;2023-05-14T02:10:09;96074.56;;;18.41
20867;BMP280;10593;48.398;10.698;2023-05-14T02:12:35;96072.81;;;18.41
20867;BMP280;10593;48.398;10.698;2023-05-14T02:15:05;96071.06;;;18.42
20867;BMP280;10593;48.398;10.698;2023-05-14T02:17:30;96074.44;;;18.44
20867;BMP280;10593;48.398;10.698;2023-05-14T02:19:56;96065.72;;;18.45
20867;BMP280;10593;48.398;10.698;2023-05-14T02:22:22;96065.72;;;18.45
20867;BMP280;10593;48.398;10.698;2023-05-14T02:24:47;96065.72;;;18.45
20867;BMP280;10593;48.398;10.698;2023-05-14T02:27:14;96060.50;;;18.45
20867;BMP280;10593;48.398;10.698;2023-05-14T02:29:40;96059.66;;;18.44
20867;BMP280;10593;48.398;10.698;2023-05-14T02:32:06;96060.50;;;18.45
20867;BMP280;10593;48.398;10.698;2023-05-14T02:34:31;96053.63;;;18.44
20867;BMP280;10593;48.398;10.698;2023-05-14T02:36:58;96051.84;;;18.44
20867;BMP280;10593;48.398;10.698;2023-05-14T02:39:24;96045.72;;;18.45
20867;BMP280;10593;48.398;10.698;2023-05-14T02:41:50;96038.75;;;18.46
20867;BMP280;10593;48.398;10.698;2023-05-14T02:44:16;96033.56;;;18.46
20867;BMP280;10593;48.398;10.698;2023-05-14T02:46:42;96044.78;;;18.46
20867;BMP280;10593;48.398;10.698;2023-05-14T02:49:08;96045.72;;;18.45
20867;BMP280;10593;48.398;10.698;2023-05-14T02:51:33;96044.78;;;18.46
20867;BMP280;10593;48.398;10.698;2023-05-14T02:53:59;96038.00;;;18.44
20867;BMP280;10593;48.398;10.698;2023-05-14T02:56:25;96045.88;;;18.42
20867;BMP280;10593;48.398;10.698;2023-05-14T02:58:50;96036.41;;;18.41
20867;BMP280;10593;48.398;10.698;2023-05-14T03:01:16;96035.63;;;18.39
20867;BMP280;10593;48.398;10.698;2023-05-14T03:03:43;96038.31;;;18.38
20867;BMP280;10593;48.398;10.698;2023-05-14T03:06:08;96032.34;;;18.36
20867;BMP280;10593;48.398;10.698;2023-05-14T03:08:34;96035.88;;;18.35
20867;BMP280;10593;48.398;10.698;2023-05-14T03:11:00;96041.13;;;18.33
20867;BMP280;10593;48.398;10.698;2023-05-14T03:13:26;96035.09;;;18.33
20867;BMP280;10593;48.398;10.698;2023-05-14T03:15:51;96037.72;;;18.33
20867;BMP280;10593;48.398;10.698;2023-05-14T03:18:19;96036.84;;;18.32
20867;BMP280;10593;48.398;10.698;2023-05-14T03:20:45;96037.72;;;18.33
20867;BMP280;10593;48.398;10.698;2023-05-14T03:23:11;96035.19;;;18.31
20867;BMP280;10593;48.398;10.698;2023-05-14T03:25:37;96030.91;;;18.30
20867;BMP280;10593;48.398;10.698;2023-05-14T03:28:03;96027.47;;;18.30
20867;BMP280;10593;48.398;10.698;2023-05-14T03:30:28;96028.38;;;18.29
20867;BMP280;10593;48.398;10.698;2023-05-14T03:32:55;96027.53;;;18.28
20867;BMP280;10593;48.398;10.698;2023-05-14T03:35:20;96034.47;;;18.28
20867;BMP280;10593;48.398;10.698;2023-05-14T03:37:46;96030.16;;;18.27
20867;BMP280;10593;48.398;10.698;2023-05-14T03:40:12;96025.97;;;18.24
20867;BMP280;10593;48.398;10.698;2023-05-14T03:42:37;96028.72;;;18.21
20867;BMP280;10593;48.398;10.698;2023-05-14T03:45:03;96027.97;;;18.19
20867;BMP280;10593;48.398;10.698;2023-05-14T03:47:29;96028.06;;;18.18
20867;BMP280;10593;48.398;10.698;2023-05-14T03:49:56;96025.53;;;18.16
20867;BMP280;10593;48.398;10.698;2023-05-14T03:52:22;96028.22;;;18.15
20867;BMP280;10593;48.398;10.698;2023-05-14T03:54:47;96033.31;;;18.16
20867;BMP280;10593;48.398;10.698;2023-05-14T03:57:13;96021.25;;;18.15
20867;BMP280;10593;48.398;10.698;2023-05-14T03:59:39;96023.03;;;18.15
20867;BMP280;10593;48.398;10.698;2023-05-14T04:02:05;96019.56;;;18.14
20867;BMP280;10593;48.398;10.698;2023-05-14T04:04:31;96019.56;;;18.14
20867;BMP280;10593;48.398;10.698;2023-05-14T04:06:57;96014.44;;;18.13
20867;BMP280;10593;48.398;10.698;2023-05-14T04:09:22;96013.59;;;18.12
20867;BMP280;10593;48.398;10.698;2023-05-14T04:11:48;96018.88;;;18.11
20867;BMP280;10593;48.398;10.698;2023-05-14T04:14:14;96018.88;;;18.11
20867;BMP280;10593;48.398;10.698;2023-05-14T04:16:39;96020.72;;;18.09
20867;BMP280;10593;48.398;10.698;2023-05-14T04:19:05;96018.16;;;18.07
20867;BMP280;10593;48.398;10.698;2023-05-14T04:21:31;96014.75;;;18.07
20867;BMP280;10593;48.398;10.698;2023-05-14T04:23:57;96014.75;;;18.07
20867;BMP280;10593;48.398;10.698;2023-05-14T04:26:22;96012.22;;;18.05
20867;BMP280;10593;48.398;10.698;2023-05-14T04:28:48;96020.88;;;18.06
20867;BMP280;10593;48.398;10.698;2023-05-14T04:31:14;96018.28;;;18.06
20867;BMP280;10593;48.398;10.698;2023-05-14T04:33:40;96016.59;;;18.05
20867;BMP280;10593;48.398;10.698;2023-05-14T04:36:06;96014.00;;;18.05
20867;BMP280;10593;48.398;10.698;2023-05-14T04:38:32;96014.81;;;18.05
20867;BMP280;10593;48.398;10.698;2023-05-14T04:40:58;96013.06;;;18.06
20867;BMP280;10593;48.398;10.698;2023-05-14T04:43:24;96014.91;;;18.04
20867;BMP280;10593;48.398;10.698;2023-05-14T04:45:50;96018.44;;;18.03
20867;BMP280;10593;48.398;10.698;2023-05-14T04:48:17;96017.63;;;18.01
20867;BMP280;10593;48.398;10.698;2023-05-14T04:50:42;96016.81;;;18.00
20867;BMP280;10593;48.398;10.698;2023-05-14T04:53:09;96027.22;;;18.00
20867;BMP280;10593;48.398;10.698;2023-05-14T04:55:35;96025.38;;;18.02
20867;BMP280;10593;48.398;10.698;2023-05-14T04:58:01;96031.44;;;18.03
20867;BMP280;10593;48.398;10.698;2023-05-14T05:00:28;96037.28;;;18.06
20867;BMP280;10593;48.398;10.698;2023-05-14T05:02:53;96025.91;;;18.09
20867;BMP280;10593;48.398;10.698;2023-05-14T05:05:19;96029.28;;;18.11
20867;BMP280;10593;48.398;10.698;2023-05-14T05:07:45;96028.34;;;18.12
20867;BMP280;10593;48.398;10.698;2023-05-14T05:10:11;96023.91;;;18.14
20867;BMP280;10593;48.398;10.698;2023-05-14T05:12:37;96027.31;;;18.16
20867;BMP280;10593;48.398;10.698;2023-05-14T05:15:03;96027.31;;;18.16
20867;BMP280;10593;48.398;10.698;2023-05-14T05:17:29;96022.91;;;18.16
20867;BMP280;10593;48.398;10.698;2023-05-14T05:19:55;96024.69;;;18.16
20867;BMP280;10593;48.398;10.698;2023-05-14T05:22:20;96030.81;;;18.15
20867;BMP280;10593;48.398;10.698;2023-05-14T05:24:46;96020.47;;;18.13
20867;BMP280;10593;48.398;10.698;2023-05-14T05:27:12;96026.59;;;18.12
20867;BMP280;10593;48.398;10.698;2023-05-14T05:29:38;96028.34;;;18.12
20867;BMP280;10593;48.398;10.698;2023-05-14T05:32:05;96030.94;;;18.12
20867;BMP280;10593;48.398;10.698;2023-05-14T05:34:31;96027.59;;;18.10
20867;BMP280;10593;48.398;10.698;2023-05-14T05:36:56;96026.75;;;18.09
20867;BMP280;10593;48.398;10.698;2023-05-14T05:39:22;96025.91;;;18.09
20867;BMP280;10593;48.398;10.698;2023-05-14T05:41:48;96027.59;;;18.10
20867;BMP280;10593;48.398;10.698;2023-05-14T05:44:13;96029.44;;;18.08
20867;BMP280;10593;48.398;10.698;2023-05-14T05:46:39;96022.38;;;18.10
20867;BMP280;10593;48.398;10.698;2023-05-14T05:49:04;96027.59;;;18.10
20867;BMP280;10593;48.398;10.698;2023-05-14T05:51:30;96029.28;;;18.11
20867;BMP280;10593;48.398;10.698;2023-05-14T05:53:56;96030.13;;;18.11
20867;BMP280;10593;48.398;10.698;2023-05-14T05:56:21;96019.63;;;18.13
20867;BMP280;10593;48.398;10.698;2023-05-14T05:58:47;96024.81;;;18.13
20867;BMP280;10593;48.398;10.698;2023-05-14T06:01:13;96024.75;;;18.14
20867;BMP280;10593;48.398;10.698;2023-05-14T06:03:38;96021.19;;;18.17
20867;BMP280;10593;48.398;10.698;2023-05-14T06:06:04;96025.47;;;18.18
20867;BMP280;10593;48.398;10.698;2023-05-14T06:08:30;96026.38;;;18.17
20867;BMP280;10593;48.398;10.698;2023-05-14T06:10:56;96030.72;;;18.16
20867;BMP280;10593;48.398;10.698;2023-05-14T06:13:22;96020.41;;;18.15
20867;BMP280;10593;48.398;10.698;2023-05-14T06:15:47;96029.09;;;18.14
20867;BMP280;10593;48.398;10.698;2023-05-14T06:18:13;96035.22;;;18.13
20867;BMP280;10593;48.398;10.698;2023-05-14T06:20:38;96025.69;;;18.13
20867;BMP280;10593;48.398;10.698;2023-05-14T06:23:06;96029.97;;;18.14
20867;BMP280;10593;48.398;10.698;2023-05-14T06:25:33;96030.81;;;18.15
20867;BMP280;10593;48.398;10.698;2023-05-14T06:27:58;96031.59;;;18.17
20867;BMP280;10593;48.398;10.698;2023-05-14T06:30:24;96030.66;;;18.18
20867;BMP280;10593;48.398;10.698;2023-05-14T06:32:50;96021.06;;;18.18
20867;BMP280;10593;48.398;10.698;2023-05-14T06:35:17;96017.66;;;18.18
20867;BMP280;10593;48.398;10.698;2023-05-14T06:37:44;96029.75;;;18.19
20867;BMP280;10593;48.398;10.698;2023-05-14T06:40:11;96030.56;;;18.19
20867;BMP280;10593;48.398;10.698;2023-05-14T06:42:37;96033.16;;;18.19
20867;BMP280;10593;48.398;10.698;2023-05-14T06:45:04;96029.81;;;18.17
20867;BMP280;10593;48.398;10.698;2023-05-14T06:47:30;96031.59;;;18.17
20867;BMP280;10593;48.398;10.698;2023-05-14T06:49:56;96036.78;;;18.17
20867;BMP280;10593;48.398;10.698;2023-05-14T06:52:23;96031.59;;;18.17
20867;BMP280;10593;48.398;10.698;2023-05-14T06:54:49;96036.84;;;18.15
20867;BMP280;10593;48.398;10.698;2023-05-14T06:57:15;96037.75;;;18.14
20867;BMP280;10593;48.398;10.698;2023-05-14T06:59:41;96038.69;;;18.13
20867;BMP280;10593;48.398;10.698;2023-05-14T07:02:06;96039.50;;;18.14
20867;BMP280;10593;48.398;10.698;2023-05-14T07:04:32;96039.50;;;18.14
20867;BMP280;10593;48.398;10.698;2023-05-14T07:06:58;96041.22;;;18.15
20867;BMP280;10593;48.398;10.698;2023-05-14T07:09:23;96043.72;;;18.16
20867;BMP280;10593;48.398;10.698;2023-05-14T07:11:49;96038.53;;;18.16
20867;BMP280;10593;48.398;10.698;2023-05-14T07:14:15;96035.88;;;18.18
20867;BMP280;10593;48.398;10.698;2023-05-14T07:16:40;96035.88;;;18.18
20867;BMP280;10593;48.398;10.698;2023-05-14T07:19:07;96041.81;;;18.20
20867;BMP280;10593;48.398;10.698;2023-05-14T07:21:34;96043.44;;;18.22
20867;BMP280;10593;48.398;10.698;2023-05-14T07:24:00;96041.66;;;18.23
20867;BMP280;10593;48.398;10.698;2023-05-14T07:26:26;96037.38;;;18.22
20867;BMP280;10593;48.398;10.698;2023-05-14T07:28:52;96042.50;;;18.23
20867;BMP280;10593;48.398;10.698;2023-05-14T07:31:17;96045.13;;;18.23
20867;BMP280;10593;48.398;10.698;2023-05-14T07:33:43;96039.81;;;18.25
20867;BMP280;10593;48.398;10.698;2023-05-14T07:36:09;96032.88;;;18.25
20867;BMP280;10593;48.398;10.698;2023-05-14T07:38:34;96036.28;;;18.26
20867;BMP280;10593;48.398;10.698;2023-05-14T07:41:00;96032.00;;;18.25
20867;BMP280;10593;48.398;10.698;2023-05-14T07:43:26;96029.41;;;18.25
20867;BMP280;10593;48.398;10.698;2023-05-14T07:45:51;96026.81;;;18.25
20867;BMP280;10593;48.398;10.698;2023-05-14T07:48:17;96030.16;;;18.27
20867;BMP280;10593;48.398;10.698;2023-05-14T07:50:43;96036.28;;;18.26
20867;BMP280;10593;48.398;10.698;2023-05-14T07:53:09;96033.69;;;18.26
20867;BMP280;10593;48.398;10.698;2023-05-14T07:55:35;96033.78;;;18.24
20867;BMP280;10593;48.398;10.698;2023-05-14T07:58:01;96034.63;;;18.25
20867;BMP280;10593;48.398;10.698;2023-05-14T08:00:27;96044.09;;;18.26
20867;BMP280;10593;48.398;10.698;2023-05-14T08:02:54;96034.53;;;18.26
20867;BMP280;10593;48.398;10.698;2023-05-14T08:05:19;96037.97;;;18.27
20867;BMP280;10593;48.398;10.698;2023-05-14T08:07:45;96038.81;;;18.27
20867;BMP280;10593;48.398;10.698;2023-05-14T08:10:11;96040.56;;;18.27
20867;BMP280;10593;48.398;10.698;2023-05-14T08:12:36;96037.97;;;18.27
20867;BMP280;10593;48.398;10.698;2023-05-14T08:15:04;96033.59;;;18.29
20867;BMP280;10593;48.398;10.698;2023-05-14T08:17:32;96034.41;;;18.29
20867;BMP280;10593;48.398;10.698;2023-05-14T08:19:57;96034.34;;;18.31
20867;BMP280;10593;48.398;10.698;2023-05-14T08:22:23;96027.47;;;18.30
20867;BMP280;10593;48.398;10.698;2023-05-14T08:24:48;96025.78;;;18.29
20867;BMP280;10593;48.398;10.698;2023-05-14T16:21:57;95748.06;;;19.22
20867;BMP280;10593;48.398;10.698;2023-05-14T16:24:23;95751.44;;;19.52
20867;BMP280;10593;48.398;10.698;2023-05-14T16:26:49;95743.72;;;19.78
20867;BMP280;10593;48.398;10.698;2023-05-14T16:29:14;95744.91;;;20.01
20867;BMP280;10593;48.398;10.698;2023-05-14T16:31:40;95758.50;;;20.20
20867;BMP280;10593;48.398;10.698;2023-05-14T16:34:06;95755.78;;;20.35
20867;BMP280;10593;48.398;10.698;2023-05-14T16:36:31;95758.34;;;20.49
20867;BMP280;10593;48.398;10.698;2023-05-14T16:38:57;95760.38;;;20.58
20867;BMP280;10593;48.398;10.698;2023-05-14T16:41:23;95758.94;;;20.67
20867;BMP280;10593;48.398;10.698;2023-05-14T16:43:48;95753.28;;;20.73
20867;BMP280;10593;48.398;10.698;2023-05-14T16:46:15;95764.19;;;20.79
20867;BMP280;10593;48.398;10.698;2023-05-14T16:48:41;95763.84;;;20.85
20867;BMP280;10593;48.398;10.698;2023-05-14T16:51:07;95766.22;;;20.88
20867;BMP280;10593;48.398;10.698;2023-05-14T16:53:34;95768.63;;;20.91
20867;BMP280;10593;48.398;10.698;2023-05-14T16:56:00;95771.03;;;20.94
20867;BMP280;10593;48.398;10.698;2023-05-14T16:58:26;95774.38;;;20.96
20867;BMP280;10593;48.398;10.698;2023-05-14T17:00:51;95768.34;;;20.96
20867;BMP280;10593;48.398;10.698;2023-05-14T17:03:17;95772.63;;;20.97
20867;BMP280;10593;48.398;10.698;2023-05-14T17:05:42;95771.69;;;20.98
20867;BMP280;10593;48.398;10.698;2023-05-14T17:08:09;95780.38;;;20.98
20867;BMP280;10593;48.398;10.698;2023-05-14T17:10:34;95776.19;;;20.96
20867;BMP280;10593;48.398;10.698;2023-05-14T17:13:00;95778.88;;;20.94
20867;BMP280;10593;48.398;10.698;2023-05-14T17:15:30;95790.47;;;20.90
20867;BMP280;10593;48.398;10.698;2023-05-14T17:17:56;95796.72;;;20.88
20867;BMP280;10593;48.398;10.698;2023-05-14T17:20:22;95793.50;;;20.84
20867;BMP280;10593;48.398;10.698;2023-05-14T17:22:48;95798.03;;;20.81
20867;BMP280;10593;48.398;10.698;2023-05-14T17:25:14;95799.28;;;20.75
20867;BMP280;10593;48.398;10.698;2023-05-14T17:27:40;95803.13;;;20.70
20867;BMP280;10593;48.398;10.698;2023-05-14T17:30:06;95804.13;;;20.67
20867;BMP280;10593;48.398;10.698;2023-05-14T17:32:32;95796.59;;;20.63
20867;BMP280;10593;48.398;10.698;2023-05-14T17:34:57;95799.53;;;20.58
20867;BMP280;10593;48.398;10.698;2023-05-14T17:37:25;95800.47;;;20.57
20867;BMP280;10593;48.398;10.698;2023-05-14T17:39:51;95804.84;;;20.57
20867;BMP280;10593;48.398;10.698;2023-05-14T17:42:17;95797.19;;;20.54
20867;BMP280;10593;48.398;10.698;2023-05-14T17:44:43;95804.38;;;20.50
20867;BMP280;10593;48.398;10.698;2023-05-14T17:47:09;95805.41;;;20.48
20867;BMP280;10593;48.398;10.698;2023-05-14T17:49:34;95805.53;;;20.46
20867;BMP280;10593;48.398;10.698;2023-05-14T17:52:00;95804.78;;;20.44
20867;BMP280;10593;48.398;10.698;2023-05-14T17:54:27;95809.88;;;20.46
20867;BMP280;10593;48.398;10.698;2023-05-14T17:56:53;95808.13;;;20.46
20867;BMP280;10593;48.398;10.698;2023-05-14T17:59:18;95801.13;;;20.47
20867;BMP280;10593;48.398;10.698;2023-05-14T18:01:44;95813.25;;;20.48
20867;BMP280;10593;48.398;10.698;2023-05-14T18:04:10;95813.88;;;20.51
20867;BMP280;10593;48.398;10.698;2023-05-14T18:06:35;95808.66;;;20.51
20867;BMP280;10593;48.398;10.698;2023-05-14T18:09:01;95814.63;;;20.53
20867;BMP280;10593;48.398;10.698;2023-05-14T18:11:27;95810.34;;;20.52
20867;BMP280;10593;48.398;10.698;2023-05-14T18:14:00;95806.78;;;20.53
20867;BMP280;10593;48.398;10.698;2023-05-14T18:16:26;95803.38;;;20.53
20867;BMP280;10593;48.398;10.698;2023-05-14T18:18:52;95804.19;;;20.53
20867;BMP280;10593;48.398;10.698;2023-05-14T18:21:18;95804.31;;;20.52
20867;BMP280;10593;48.398;10.698;2023-05-14T18:23:43;95803.38;;;20.53
20867;BMP280;10593;48.398;10.698;2023-05-14T18:26:09;95803.25;;;20.54
20867;BMP280;10593;48.398;10.698;2023-05-14T18:28:36;95804.84;;;20.57
20867;BMP280;10593;48.398;10.698;2023-05-14T18:31:01;95804.75;;;20.58
20867;BMP280;10593;48.398;10.698;2023-05-14T18:33:30;95803.97;;;20.56
20867;BMP280;10593;48.398;10.698;2023-05-14T18:35:56;95803.44;;;20.51
20867;BMP280;10593;48.398;10.698;2023-05-14T18:38:22;95801.13;;;20.47
20867;BMP280;10593;48.398;10.698;2023-05-14T18:40:48;95803.94;;;20.44
20867;BMP280;10593;48.398;10.698;2023-05-14T18:43:14;95800.50;;;20.43
20867;BMP280;10593;48.398;10.698;2023-05-14T18:45:41;95802.19;;;20.44
20867;BMP280;10593;48.398;10.698;2023-05-14T18:48:08;95805.59;;;20.45
20867;BMP280;10593;48.398;10.698;2023-05-14T18:50:34;95805.53;;;20.46
20867;BMP280;10593;48.398;10.698;2023-05-14T18:52:59;95807.19;;;20.47
20867;BMP280;10593;48.398;10.698;2023-05-14T18:55:25;95806.25;;;20.48
20867;BMP280;10593;48.398;10.698;2023-05-14T18:57:51;95812.22;;;20.50
20867;BMP280;10593;48.398;10.698;2023-05-14T19:00:17;95804.31;;;20.52
20867;BMP280;10593;48.398;10.698;2023-05-14T19:02:43;95805.13;;;20.52
20867;BMP280;10593;48.398;10.698;2023-05-14T19:05:09;95808.59;;;20.53
20867;BMP280;10593;48.398;10.698;2023-05-14T19:07:36;95806.78;;;20.53
20867;BMP280;10593;48.398;10.698;2023-05-14T19:10:03;95804.19;;;20.53
20867;BMP280;10593;48.398;10.698;2023-05-14T19:12:29;95807.72;;;20.52
20867;BMP280;10593;48.398;10.698;2023-05-14T19:14:56;95805.13;;;20.52
20867;BMP280;10593;48.398;10.698;2023-05-14T19:17:22;95810.34;;;20.52
20867;BMP280;10593;48.398;10.698;2023-05-14T19:19:48;95808.66;;;20.51
20867;BMP280;10593;48.398;10.698;2023-05-14T19:22:14;95812.94;;;20.52
20867;BMP280;10593;48.398;10.698;2023-05-14T19:24:40;95808.75;;;20.50
20867;BMP280;10593;48.398;10.698;2023-05-14T19:27:05;95812.22;;;20.50
20867;BMP280;10593;48.398;10.698;2023-05-14T19:29:31;95817.44;;;20.50
20867;BMP280;10593;48.398;10.698;2023-05-14T19:31:58;95815.75;;;20.49
20867;BMP280;10593;48.398;10.698;2023-05-14T19:34:23;95819.31;;;20.48
20867;BMP280;10593;48.398;10.698;2023-05-14T19:36:49;95817.63;;;20.47
20867;BMP280;10593;48.398;10.698;2023-05-14T19:39:15;95815.03;;;20.47
20867;BMP280;10593;48.398;10.698;2023-05-14T19:41:41;95810.75;;;20.46
20867;BMP280;10593;48.398;10.698;2023-05-14T19:44:06;95818.66;;;20.45
20867;BMP280;10593;48.398;10.698;2023-05-14T19:46:32;95830.88;;;20.44
20867;BMP280;10593;48.398;10.698;2023-05-14T19:48:58;95825.75;;;20.43
20867;BMP280;10593;48.398;10.698;2023-05-14T19:51:24;95825.84;;;20.41
20867;BMP280;10593;48.398;10.698;2023-05-14T19:53:49;95824.28;;;20.39
20867;BMP280;10593;48.398;10.698;2023-05-14T19:56:15;95833.88;;;20.38
20867;BMP280;10593;48.398;10.698;2023-05-14T19:58:41;95827.06;;;20.36
20867;BMP280;10593;48.398;10.698;2023-05-14T20:01:07;95826.31;;;20.34
20867;BMP280;10593;48.398;10.698;2023-05-14T20:03:33;95826.44;;;20.32
20867;BMP280;10593;48.398;10.698;2023-05-14T20:05:59;95827.25;;;20.33
20867;BMP280;10593;48.398;10.698;2023-05-14T20:08:25;95824.84;;;20.30
20867;BMP280;10593;48.398;10.698;2023-05-14T20:10:51;95831.81;;;20.29
20867;BMP280;10593;48.398;10.698;2023-05-14T20:13:16;95833.59;;;20.29
20867;BMP280;10593;48.398;10.698;2023-05-14T20:15:43;95830.25;;;20.27
20867;BMP280;10593;48.398;10.698;2023-05-14T20:18:09;95830.47;;;20.24
20867;BMP280;10593;48.398;10.698;2023-05-14T20:20:34;95826.25;;;20.21
20867;BMP280;10593;48.398;10.698;2023-05-14T20:23:00;95831.66;;;20.18
20867;BMP280;10593;48.398;10.698;2023-05-14T20:25:26;95834.28;;;20.18
20867;BMP280;10593;48.398;10.698;2023-05-14T20:27:51;95832.69;;;20.16
20867;BMP280;10593;48.398;10.698;2023-05-14T20:30:17;95835.38;;;20.14
20867;BMP280;10593;48.398;10.698;2023-05-14T20:32:43;95832.88;;;20.13
20867;BMP280;10593;48.398;10.698;2023-05-14T20:35:09;95833.81;;;20.12
20867;BMP280;10593;48.398;10.698;2023-05-14T20:37:35;95830.53;;;20.08
20867;BMP280;10593;48.398;10.698;2023-05-14T20:40:01;95830.53;;;20.08
20867;BMP280;10593;48.398;10.698;2023-05-14T20:42:28;95828.97;;;20.06
20867;BMP280;10593;48.398;10.698;2023-05-14T20:44:54;95829.88;;;20.05
20867;BMP280;10593;48.398;10.698;2023-05-14T20:47:20;95830.81;;;20.04
20867;BMP280;10593;48.398;10.698;2023-05-14T20:49:49;95824.78;;;20.03
20867;BMP280;10593;48.398;10.698;2023-05-14T20:52:16;95826.59;;;20.01
20867;BMP280;10593;48.398;10.698;2023-05-14T20:54:42;95824.84;;;20.02
20867;BMP280;10593;48.398;10.698;2023-05-14T20:57:09;95818.88;;;20.00
20867;BMP280;10593;48.398;10.698;2023-05-14T20:59:35;95819.81;;;19.99
20867;BMP280;10593;48.398;10.698;2023-05-14T21:02:01;95824.19;;;19.98
20867;BMP280;10593;48.398;10.698;2023-05-14T21:04:26;95813.84;;;19.97
20867;BMP280;10593;48.398;10.698;2023-05-14T21:06:52;95825.19;;;19.96
20867;BMP280;10593;48.398;10.698;2023-05-14T21:09:18;95817.47;;;19.94
20867;BMP280;10593;48.398;10.698;2023-05-14T21:11:45;95827.91;;;19.94
20867;BMP280;10593;48.398;10.698;2023-05-14T21:14:11;95820.28;;;19.91
20867;BMP280;10593;48.398;10.698;2023-05-14T21:16:37;95825.50;;;19.91
20867;BMP280;10593;48.398;10.698;2023-05-14T21:19:03;95833.41;;;19.90
20867;BMP280;10593;48.398;10.698;2023-05-14T21:21:28;95823.97;;;19.87
20867;BMP280;10593;48.398;10.698;2023-05-14T21:23:54;95825.84;;;19.85
20867;BMP280;10593;48.398;10.698;2023-05-14T21:26:20;95821.56;;;19.84
20867;BMP280;10593;48.398;10.698;2023-05-14T21:28:47;95831.19;;;19.84
20867;BMP280;10593;48.398;10.698;2023-05-14T21:31:12;95821.75;;;19.81
20867;BMP280;10593;48.398;10.698;2023-05-14T21:33:38;95817.47;;;19.80
20867;BMP280;10593;48.398;10.698;2023-05-14T21:36:06;95823.63;;;19.79
20867;BMP280;10593;48.398;10.698;2023-05-14T21:38:33;95820.28;;;19.77
20867;BMP280;10593;48.398;10.698;2023-05-14T21:40:59;95822.97;;;19.76
20867;BMP280;10593;48.398;10.698;2023-05-14T21:43:25;95826.50;;;19.75
20867;BMP280;10593;48.398;10.698;2023-05-14T21:45:51;95820.44;;;19.74